Time;durP1;ratioP1;P1;durP2;ratioP2;P2;SDS_P1;SDS_P2;PMS_P1;PMS_P2;Temp;Humidity;BMP_temperature;BMP_pressure;BME280_temperature;BME280_humidity;BME280_pressure;Samples;Min_cycle;Max_cycle;Signal;HPM_P1;HPM_P2
2022/03/10 00:01:55;;;;;;;22.30;13.00;;;;;;;-1.36;67.44;101538.81;106196;1273;138976;-74
2022/03/10 00:04:27;;;;;;;25.70;12.60;;;;;;;-1.37;67.30;101543.71;107576;1271;112333;-74
2022/03/10 00:07:00;;;;;;;24.50;13.00;;;;;;;-1.38;67.41;101545.90;107659;1272;106797;-74
2022/03/10 00:09:35;;;;;;;22.90;13.40;;;;;;;-1.38;67.31;101547.79;107550;1273;139523;-72
2022/03/10 00:12:08;;;;;;;23.30;13.30;;;;;;;-1.41;67.19;101547.34;107591;1273;96550;-73
2022/03/10 00:14:40;;;;;;;24.00;13.10;;;;;;;-1.44;67.13;101547.70;107484;1273;138366;-73
2022/03/10 00:17:13;;;;;;;22.80;13.00;;;;;;;-1.49;66.84;101554.86;107617;1273;112708;-72
2022/03/10 00:19:47;;;;;;;26.80;15.00;;;;;;;-1.56;67.38;101551.04;107459;1273;139705;-72
2022/03/10 00:22:19;;;;;;;33.50;18.00;;;;;;;-1.61;66.80;101555.80;107413;1273;109062;-72
2022/03/10 00:24:51;;;;;;;30.40;16.60;;;;;;;-1.64;67.10;101557.70;107531;1273;96107;-73
2022/03/10 00:27:23;;;;;;;24.00;13.60;;;;;;;-1.66;67.32;101558.98;107393;1273;138570;-74
2022/03/10 00:29:56;;;;;;;27.30;14.60;;;;;;;-1.66;67.26;101562.06;107117;1273;406689;-73
2022/03/10 00:32:28;;;;;;;20.20;12.20;;;;;;;-1.65;67.54;101570.09;107369;1273;137547;-72
2022/03/10 00:35:00;;;;;;;21.50;12.40;;;;;;;-1.63;67.51;101573.26;107630;1272;107808;-72
2022/03/10 00:37:33;;;;;;;22.30;13.00;;;;;;;-1.61;67.09;101568.76;107453;1273;138241;-72
2022/03/10 00:40:06;;;;;;;21.10;12.60;;;;;;;-1.61;67.17;101573.00;107630;1272;96495;-72
2022/03/10 00:42:39;;;;;;;23.70;13.20;;;;;;;-1.62;67.45;101581.83;107592;1271;111316;-72
2022/03/10 00:45:13;;;;;;;22.30;13.00;;;;;;;-1.64;67.08;101585.83;107417;1272;138557;-72
2022/03/10 00:47:45;;;;;;;23.20;13.50;;;;;;;-1.70;67.14;101586.98;107556;1273;108688;-71
2022/03/10 00:50:18;;;;;;;26.20;13.30;;;;;;;-1.75;67.29;101588.48;107468;1272;139155;-72
2022/03/10 00:52:50;;;;;;;22.80;12.40;;;;;;;-1.82;67.18;101594.02;107477;1273;96119;-72
2022/03/10 00:55:22;;;;;;;21.00;12.50;;;;;;;-1.87;67.02;101600.64;107670;1273;111137;-73
2022/03/10 00:57:55;;;;;;;19.70;12.00;;;;;;;-1.91;67.48;101604.23;107558;1273;138587;-72
2022/03/10 01:00:29;;;;;;;21.20;12.20;;;;;;;-1.91;67.40;101606.46;107626;1273;107579;-73
2022/03/10 01:03:01;;;;;;;23.20;12.40;;;;;;;-1.91;67.57;101608.50;107513;1273;138850;-72
2022/03/10 01:05:34;;;;;;;21.70;11.80;;;;;;;-1.89;67.46;101610.61;107483;1273;95751;-73
2022/03/10 01:08:07;;;;;;;20.10;12.40;;;;;;;-1.87;67.40;101611.71;107485;1273;138316;-72
2022/03/10 01:10:40;;;;;;;22.10;12.80;;;;;;;-1.87;67.71;101615.30;107546;1272;107161;-72
2022/03/10 01:13:18;;;;;;;22.30;12.30;;;;;;;-1.87;67.42;101618.55;107528;1273;109331;-72
2022/03/10 01:15:50;;;;;;;22.20;12.90;;;;;;;-1.88;67.38;101622.27;107446;1272;137853;-73
2022/03/10 01:18:24;;;;;;;25.00;13.20;;;;;;;-1.89;67.35;101623.41;107594;1272;96213;-73
2022/03/10 01:20:57;;;;;;;24.20;12.70;;;;;;;-1.92;67.16;101621.59;107530;1272;139204;-72
2022/03/10 01:23:29;;;;;;;22.10;12.90;;;;;;;-1.95;67.12;101624.38;107633;1273;108921;-73
2022/03/10 01:26:01;;;;;;;29.10;14.00;;;;;;;-1.98;67.26;101628.48;107482;1273;139960;-74
2022/03/10 01:28:34;;;;;;;23.40;12.60;;;;;;;-2.02;67.21;101634.13;107676;1272;96129;-73
2022/03/10 01:31:06;;;;;;;22.00;12.30;;;;;;;-2.05;67.40;101634.83;107652;1273;95961;-74
2022/03/10 01:33:38;;;;;;;21.00;12.00;;;;;;;-2.08;67.19;101641.54;107579;1272;138655;-73
2022/03/10 01:36:10;;;;;;;21.10;12.30;;;;;;;-2.07;67.58;101645.66;107703;1273;107927;-73
2022/03/10 01:38:42;;;;;;;21.50;12.30;;;;;;;-2.05;67.41;101646.44;107547;1272;138635;-73
2022/03/10 01:41:16;;;;;;;22.30;13.10;;;;;;;-2.02;67.25;101650.98;107647;1273;96856;-74
2022/03/10 01:44:02;;;;;;;21.40;13.40;;;;;;;-2.00;67.32;101649.70;107592;1273;138498;-74
2022/03/10 01:46:34;;;;;;;21.60;12.50;;;;;;;-1.98;67.50;101653.16;107608;1273;112742;-72
2022/03/10 01:49:07;;;;;;;21.90;12.00;;;;;;;-1.98;67.44;101655.04;107710;1272;107726;-73
2022/03/10 01:51:40;;;;;;;23.80;13.20;;;;;;;-2.00;67.10;101658.54;107573;1272;138094;-72
2022/03/10 01:54:12;;;;;;;21.70;12.90;;;;;;;-2.02;67.19;101658.31;107630;1273;96079;-72
2022/03/10 01:56:45;;;;;;;23.10;13.70;;;;;;;-2.06;66.85;101663.77;107445;1273;138477;-72
2022/03/10 01:59:18;;;;;;;24.10;13.00;;;;;;;-2.10;67.04;101666.18;107680;1271;112761;-75
2022/03/10 02:01:51;;;;;;;22.60;13.10;;;;;;;-2.13;67.24;101667.06;107405;1273;139326;-73
2022/03/10 02:04:23;;;;;;;21.50;12.50;;;;;;;-2.17;67.36;101667.08;107650;1272;108484;-73
2022/03/10 02:06:56;;;;;;;25.00;13.20;;;;;;;-2.18;67.27;101673.14;106894;1272;97920;-74
2022/03/10 02:12:20;;;;;;;21.60;12.40;;;;;;;-2.16;67.26;101686.53;105971;1273;112529;-74
2022/03/10 02:17:43;;;;;;;23.40;13.20;;;;;;;-2.12;67.43;101685.68;105941;1273;108306;-75
2022/03/10 02:20:16;;;;;;;;;;;;;;;-2.14;67.18;101686.79;105952;1273;138510;-74
2022/03/10 02:22:49;;;;;;;26.60;13.80;;;;;;;-2.17;67.50;101687.70;106094;1273;97833;-74
2022/03/10 02:25:24;;;;;;;22.50;13.50;;;;;;;-2.19;67.15;101690.00;106053;1273;111689;-73
2022/03/10 02:27:58;;;;;;;22.80;13.00;;;;;;;-2.22;67.06;101691.71;107396;1273;139712;-74
2022/03/10 02:30:32;;;;;;;25.20;14.00;;;;;;;-2.28;67.15;101690.64;107538;1272;109208;-73
2022/03/10 02:33:05;;;;;;;24.00;13.60;;;;;;;-2.32;67.22;101696.39;107556;1272;138486;-73
2022/03/10 02:35:38;;;;;;;26.40;13.30;;;;;;;-2.38;67.23;101702.77;107697;1272;95800;-74
2022/03/10 02:38:15;;;;;;;24.30;13.00;;;;;;;-2.44;67.08;101705.27;107512;1273;138314;-73
2022/03/10 02:40:48;;;;;;;25.70;13.70;;;;;;;-2.50;67.25;101707.23;107635;1273;107612;-74
2022/03/10 02:43:21;;;;;;;22.40;12.70;;;;;;;-2.53;67.10;101710.64;107622;1272;108888;-73
2022/03/10 02:45:54;;;;;;;22.40;13.10;;;;;;;-2.55;67.40;101715.66;107490;1272;139029;-74
2022/03/10 02:48:27;;;;;;;22.80;12.40;;;;;;;-2.55;67.33;101720.79;107630;1273;97160;-73
2022/03/10 02:50:59;;;;;;;20.50;11.90;;;;;;;-2.52;67.78;101725.15;106704;1273;138355;-74
2022/03/10 02:53:31;;;;;;;24.90;13.20;;;;;;;-2.50;67.60;101727.31;106065;1273;108929;-73
2022/03/10 02:56:04;;;;;;;23.80;13.00;;;;;;;-2.50;67.29;101734.65;105811;1274;138792;-73
2022/03/10 02:58:36;;;;;;;22.90;12.70;;;;;;;-2.50;67.37;101735.84;107655;1273;96179;-73
2022/03/10 03:01:08;;;;;;;22.50;12.60;;;;;;;-2.51;67.43;101739.88;107661;1273;95987;-73
2022/03/10 03:03:41;;;;;;;25.10;13.30;;;;;;;-2.55;66.99;101747.34;107540;1272;137958;-73
2022/03/10 03:06:13;;;;;;;25.80;13.50;;;;;;;-2.60;67.03;101749.52;107661;1271;108805;-73
2022/03/10 03:08:46;;;;;;;23.80;12.90;;;;;;;-2.64;67.15;101752.06;107587;1272;138696;-73
2022/03/10 03:11:18;;;;;;;25.70;13.20;;;;;;;-2.68;67.43;101753.07;107640;1273;96439;-73
2022/03/10 03:13:50;;;;;;;23.50;12.90;;;;;;;-2.72;67.09;101758.65;107468;1273;138647;-73
2022/03/10 03:16:22;;;;;;;23.60;13.30;;;;;;;-2.78;67.15;101759.56;107669;1273;111365;-73
2022/03/10 03:18:55;;;;;;;23.70;13.20;;;;;;;-2.84;67.30;101765.79;107615;1272;108856;-74
2022/03/10 03:21:28;;;;;;;21.40;12.10;;;;;;;-2.86;67.45;101763.95;107351;1273;138993;-74
2022/03/10 03:24:00;;;;;;;24.20;12.80;;;;;;;-2.86;67.41;101771.31;107594;1272;96340;-73
2022/03/10 03:26:32;;;;;;;26.10;12.60;;;;;;;-2.83;67.42;101775.70;107512;1273;138733;-73
2022/03/10 03:29:04;;;;;;;25.70;13.60;;;;;;;-2.83;67.06;101780.11;107637;1273;111405;-74
2022/03/10 03:31:36;;;;;;;22.40;13.00;;;;;;;-2.83;67.09;101782.19;107522;1272;138089;-73
2022/03/10 03:34:11;;;;;;;27.40;14.10;;;;;;;-2.82;67.24;101782.39;107633;1273;108970;-74
2022/03/10 03:36:45;;;;;;;28.00;13.60;;;;;;;-2.82;67.00;101784.95;107597;1271;96252;-75
2022/03/10 03:39:18;;;;;;;26.30;13.10;;;;;;;-2.85;67.01;101786.17;107456;1271;138363;-74
2022/03/10 03:41:50;;;;;;;27.40;13.20;;;;;;;-2.89;66.91;101786.96;107634;1273;112279;-74
2022/03/10 03:44:22;;;;;;;25.00;12.90;;;;;;;-2.92;67.13;101792.95;107510;1273;139808;-75
2022/03/10 03:46:55;;;;;;;26.50;13.20;;;;;;;-2.96;66.83;101798.20;107609;1273;107782;-75
2022/03/10 03:49:27;;;;;;;27.50;13.50;;;;;;;-3.00;66.97;101803.80;107638;1273;96215;-75
2022/03/10 03:51:59;;;;;;;23.70;12.50;;;;;;;-3.04;66.63;101813.84;107493;1273;138220;-74
2022/03/10 03:54:31;;;;;;;22.10;12.20;;;;;;;-3.09;66.71;101811.57;107520;1273;111404;-74
2022/03/10 03:57:03;;;;;;;20.60;11.70;;;;;;;-3.11;66.93;101813.84;107515;1273;139113;-75
2022/03/10 03:59:36;;;;;;;23.20;12.40;;;;;;;-3.12;66.52;101819.22;107587;1273;107851;-74
2022/03/10 04:02:08;;;;;;;25.80;12.30;;;;;;;-3.13;66.85;101820.38;107474;1273;138983;-75
2022/03/10 04:04:40;;;;;;;22.50;11.50;;;;;;;-3.13;66.64;101820.53;107655;1273;95900;-75
2022/03/10 04:07:14;;;;;;;22.30;11.50;;;;;;;-3.12;66.65;101821.95;107658;1273;111978;-75
2022/03/10 04:09:46;;;;;;;22.80;12.10;;;;;;;-3.09;66.43;101827.02;107450;1273;139653;-74
2022/03/10 04:12:20;;;;;;;20.50;11.40;;;;;;;-3.06;66.49;101825.16;107636;1273;107813;-74
2022/03/10 04:14:52;;;;;;;21.50;11.40;;;;;;;-3.06;66.21;101830.76;107500;1271;137941;-74
2022/03/10 04:17:24;;;;;;;23.00;11.90;;;;;;;-3.07;66.25;101831.05;107626;1273;96179;-75
2022/03/10 04:19:57;;;;;;;24.30;12.40;;;;;;;-3.08;66.06;101832.17;107538;1273;137976;-73
2022/03/10 04:22:29;;;;;;;22.80;12.80;;;;;;;-3.10;66.11;101835.16;107660;1273;108117;-73
2022/03/10 04:25:01;;;;;;;24.00;12.30;;;;;;;-3.13;65.50;101837.90;107612;1273;108837;-73
2022/03/10 04:27:33;;;;;;;24.60;11.80;;;;;;;-3.17;65.88;101839.23;107506;1273;138402;-73
2022/03/10 04:30:07;;;;;;;21.90;10.70;;;;;;;-3.22;65.68;101839.16;107629;1273;95780;-74
2022/03/10 04:32:44;;;;;;;20.00;10.50;;;;;;;-3.27;65.54;101843.69;107512;1272;138998;-75
2022/03/10 04:35:18;;;;;;;18.30;10.40;;;;;;;-3.30;65.15;101845.37;107654;1273;107962;-75
2022/03/10 04:37:52;;;;;;;18.20;10.00;;;;;;;-3.36;65.52;101847.16;107521;1273;139299;-73
2022/03/10 04:40:25;;;;;;;18.80;9.80;;;;;;;-3.43;65.16;101856.69;107521;1273;96235;-74
2022/03/10 04:42:57;;;;;;;19.40;10.60;;;;;;;-3.47;65.33;101860.02;107642;1273;95935;-74
2022/03/10 04:45:29;;;;;;;19.00;9.30;;;;;;;-3.51;65.24;101859.66;107494;1273;138583;-77
2022/03/10 04:48:02;;;;;;;17.00;9.50;;;;;;;-3.53;64.88;101866.36;107607;1273;108884;-75
2022/03/10 04:50:35;;;;;;;17.40;9.90;;;;;;;-3.54;65.41;101866.79;107459;1273;139005;-74
2022/03/10 04:53:08;;;;;;;16.30;8.80;;;;;;;-3.55;65.19;101870.34;107629;1273;96108;-74
2022/03/10 04:55:40;;;;;;;18.50;9.50;;;;;;;-3.55;65.14;101868.95;107566;1272;138756;-75
2022/03/10 04:58:13;;;;;;;17.30;9.60;;;;;;;-3.53;65.30;101876.39;107665;1271;112522;-74
2022/03/10 05:00:45;;;;;;;16.40;9.30;;;;;;;-3.52;65.09;101883.39;107654;1271;109195;-74
2022/03/10 05:03:18;;;;;;;16.70;9.40;;;;;;;-3.55;64.78;101881.58;107506;1273;138253;-73
2022/03/10 05:05:51;;;;;;;17.80;8.90;;;;;;;-3.59;64.72;101890.86;107638;1273;96347;-74
2022/03/10 05:08:23;;;;;;;18.90;9.20;;;;;;;-3.65;64.40;101896.02;107523;1273;137907;-74
2022/03/10 05:10:55;;;;;;;17.50;9.40;;;;;;;-3.71;64.56;101902.66;107670;1272;112207;-74
2022/03/10 05:13:28;;;;;;;16.40;9.20;;;;;;;-3.75;64.19;101901.98;107619;1273;108749;-74
2022/03/10 05:16:00;;;;;;;17.20;9.50;;;;;;;-3.78;64.43;101907.75;107505;1271;138479;-74
2022/03/10 05:18:33;;;;;;;17.90;9.50;;;;;;;-3.78;64.60;101914.70;107558;1272;96131;-74
2022/03/10 05:21:05;;;;;;;16.80;9.00;;;;;;;-3.76;64.03;101919.22;107556;1273;138604;-72
2022/03/10 05:23:40;;;;;;;16.10;8.20;;;;;;;-3.70;64.16;101923.11;107632;1273;111449;-74
2022/03/10 05:26:13;;;;;;;14.80;8.60;;;;;;;-3.58;64.28;101928.83;107464;1273;138876;-74
2022/03/10 05:28:45;;;;;;;17.00;8.60;;;;;;;-3.40;63.77;101928.73;107541;1271;107863;-73
2022/03/10 05:31:18;;;;;;;17.80;8.40;;;;;;;-3.12;63.74;101936.27;107628;1271;96092;-73
2022/03/10 05:33:51;;;;;;;17.10;8.70;;;;;;;-2.74;63.20;101936.62;107522;1273;137969;-74
2022/03/10 05:36:23;;;;;;;14.30;8.20;;;;;;;-2.26;62.57;101940.12;107651;1272;112685;-74
2022/03/10 05:38:56;;;;;;;14.60;8.30;;;;;;;-1.77;61.85;101947.33;107529;1273;138240;-75
2022/03/10 05:41:28;;;;;;;14.60;8.20;;;;;;;-1.41;61.44;101950.98;107644;1272;108440;-75
2022/03/10 05:44:00;;;;;;;14.40;8.40;;;;;;;-1.12;60.80;101954.60;107481;1273;138364;-74
2022/03/10 05:46:36;;;;;;;15.30;8.60;;;;;;;-0.86;60.50;101957.77;107652;1273;96153;-75
2022/03/10 05:49:10;;;;;;;17.70;8.90;;;;;;;-0.53;59.93;101958.09;107641;1273;112013;-74
2022/03/10 05:51:44;;;;;;;14.20;8.30;;;;;;;-0.21;59.31;101960.54;107558;1273;138780;-74
2022/03/10 05:54:16;;;;;;;15.40;8.70;;;;;;;0.17;58.98;101963.04;107624;1273;107759;-73
2022/03/10 05:56:50;;;;;;;13.90;7.80;;;;;;;0.61;58.25;101965.17;107535;1273;137771;-74
2022/03/10 05:59:23;;;;;;;13.00;8.40;;;;;;;1.13;57.34;101967.84;107541;1274;96152;-73
2022/03/10 06:01:56;;;;;;;13.40;8.10;;;;;;;1.76;56.47;101968.51;107541;1271;138101;-73
2022/03/10 06:04:28;;;;;;;15.50;7.70;;;;;;;2.44;55.43;101968.67;107663;1273;107933;-74
2022/03/10 06:07:03;;;;;;;16.30;7.80;;;;;;;3.23;52.83;101973.02;107624;1271;109633;-75
2022/03/10 06:09:36;;;;;;;16.30;7.10;;;;;;;3.93;50.37;101973.69;107441;1273;138602;-74
2022/03/10 06:12:10;;;;;;;13.20;8.00;;;;;;;4.81;49.92;101974.29;107640;1271;96609;-73
2022/03/10 06:14:44;;;;;;;12.50;7.90;;;;;;;5.87;49.14;101973.85;107548;1274;138062;-73
2022/03/10 06:17:16;;;;;;;15.60;8.10;;;;;;;7.06;48.06;101976.38;107626;1271;108388;-74
2022/03/10 06:19:50;;;;;;;13.40;7.90;;;;;;;8.33;46.93;101973.17;107527;1272;138579;-73
2022/03/10 06:22:24;;;;;;;12.30;7.60;;;;;;;9.58;44.41;101969.63;107637;1271;96011;-73
2022/03/10 06:24:57;;;;;;;12.30;7.70;;;;;;;10.65;43.35;101967.98;107576;1274;96059;-73
2022/03/10 06:27:29;;;;;;;12.60;6.80;;;;;;;11.85;43.40;101972.66;107527;1272;139557;-73
2022/03/10 06:30:02;;;;;;;9.80;7.20;;;;;;;12.89;41.85;101971.08;107625;1273;107381;-73
2022/03/10 06:32:34;;;;;;;10.60;7.50;;;;;;;13.71;39.46;101976.08;107518;1271;139138;-73
2022/03/10 06:35:11;;;;;;;11.60;7.80;;;;;;;14.33;36.75;101975.97;107615;1273;96176;-72
2022/03/10 06:37:49;;;;;;;11.70;7.70;;;;;;;14.83;36.50;101978.79;107407;1271;139859;-73
2022/03/10 06:40:22;;;;;;;12.80;8.00;;;;;;;15.34;34.58;101980.75;107644;1273;109392;-74
2022/03/10 06:42:55;;;;;;;12.50;7.40;;;;;;;15.75;34.86;101978.33;107608;1273;109492;-73
2022/03/10 06:45:27;;;;;;;12.30;7.20;;;;;;;16.31;34.35;101977.86;107497;1273;138393;-73
2022/03/10 06:48:01;;;;;;;11.70;7.20;;;;;;;17.07;33.32;101978.77;107484;1273;96086;-74
2022/03/10 06:50:34;;;;;;;13.30;6.90;;;;;;;17.79;32.60;101983.63;107422;1272;138270;-74
2022/03/10 06:53:07;;;;;;;9.80;7.00;;;;;;;18.31;32.17;101977.02;107485;1273;113532;-73
2022/03/10 06:55:42;;;;;;;10.60;6.80;;;;;;;18.96;32.07;101982.47;107424;1273;138887;-74
2022/03/10 06:58:15;;;;;;;10.80;6.40;;;;;;;19.58;30.91;101985.05;107522;1274;107873;-75
2022/03/10 07:00:48;;;;;;;10.60;6.00;;;;;;;20.22;30.28;101980.71;107405;1274;96293;-75
2022/03/10 07:03:29;;;;;;;10.10;6.20;;;;;;;20.80;28.81;101982.83;107426;1273;137749;-74
2022/03/10 07:06:03;;;;;;;8.40;6.40;;;;;;;21.18;27.46;101981.33;107533;1272;111401;-74
2022/03/10 07:08:36;;;;;;;9.60;5.30;;;;;;;21.14;25.59;101981.14;107444;1272;138069;-73
2022/03/10 07:11:09;;;;;;;7.30;5.70;;;;;;;20.79;25.16;101982.69;107640;1274;106847;-73
2022/03/10 07:13:42;;;;;;;7.00;5.70;;;;;;;20.76;25.24;101983.71;107502;1273;138453;-73
2022/03/10 07:16:15;;;;;;;9.30;5.70;;;;;;;20.82;24.69;101986.60;107456;1274;96647;-75
2022/03/10 07:18:50;;;;;;;9.90;5.40;;;;;;;20.91;24.35;101989.55;107510;1273;112727;-74
2022/03/10 07:21:23;;;;;;;8.10;5.60;;;;;;;20.90;24.21;101990.48;107448;1273;138178;-74
2022/03/10 07:23:58;;;;;;;8.40;5.60;;;;;;;20.99;23.94;101988.10;107360;1273;108463;-73
2022/03/10 07:26:32;;;;;;;9.80;5.70;;;;;;;21.05;24.15;101986.73;105853;1274;138468;-74
2022/03/10 07:29:06;;;;;;;7.90;5.20;;;;;;;21.41;23.99;101989.23;105913;1273;98227;-75
2022/03/10 07:31:41;;;;;;;6.80;5.20;;;;;;;21.65;23.47;101995.82;107407;1273;139985;-74
2022/03/10 07:34:14;;;;;;;7.20;5.20;;;;;;;22.07;23.92;101996.84;107541;1273;107852;-74
2022/03/10 07:36:47;;;;;;;12.70;6.00;;;;;;;22.51;23.39;101999.48;107575;1273;107583;-75
2022/03/10 07:39:20;;;;;;;9.50;5.60;;;;;;;22.85;23.22;101997.05;107518;1273;138767;-74
2022/03/10 07:41:53;;;;;;;9.10;5.30;;;;;;;23.03;21.89;101995.56;107624;1273;96022;-74
2022/03/10 07:44:26;;;;;;;14.20;5.50;;;;;;;22.93;21.58;102000.52;107527;1273;137807;-74
2022/03/10 07:46:59;;;;;;;8.80;5.10;;;;;;;22.88;21.43;101998.14;107595;1272;108224;-75
2022/03/10 07:49:32;;;;;;;8.30;5.00;;;;;;;22.70;20.28;101995.91;107567;1273;108746;-75
2022/03/10 07:52:08;;;;;;;11.10;5.30;;;;;;;22.36;20.18;101994.96;107335;1273;137865;-73
2022/03/10 07:54:41;;;;;;;7.40;5.20;;;;;;;22.30;20.70;101998.29;107564;1273;96583;-73
2022/03/10 07:57:13;;;;;;;8.60;5.30;;;;;;;22.32;20.66;102000.15;107360;1273;138758;-74
2022/03/10 07:59:47;;;;;;;8.50;4.70;;;;;;;22.48;20.81;102000.68;107592;1273;109929;-76
2022/03/10 08:02:21;;;;;;;6.60;4.80;;;;;;;22.79;20.69;102004.83;107386;1273;138653;-75
2022/03/10 08:04:53;;;;;;;8.00;5.00;;;;;;;22.89;20.32;102010.83;107574;1273;97793;-77
2022/03/10 08:07:26;;;;;;;9.30;5.30;;;;;;;22.94;20.26;102008.46;107595;1273;96358;-76
2022/03/10 08:09:58;;;;;;;10.80;5.40;;;;;;;23.03;20.27;102000.33;107474;1272;138406;-76
2022/03/10 08:12:34;;;;;;;5.90;5.10;;;;;;;23.15;20.23;102005.52;107504;1273;108606;-88
2022/03/10 08:15:07;;;;;;;7.90;5.00;;;;;;;23.36;19.58;102008.73;107458;1273;138398;-76
2022/03/10 08:17:39;;;;;;;6.40;4.70;;;;;;;23.51;19.76;102009.11;107540;1273;97758;-74
2022/03/10 08:20:18;;;;;;;9.30;5.30;;;;;;;23.50;18.55;102009.86;107437;1272;137844;-74
2022/03/10 08:22:55;;;;;;;9.00;5.00;;;;;;;23.29;19.00;102007.17;107536;1273;111302;-72
2022/03/10 08:25:28;;;;;;;6.80;4.50;;;;;;;23.21;18.43;102001.44;107535;1273;108983;-74
2022/03/10 08:28:01;;;;;;;9.20;4.70;;;;;;;23.02;18.59;102005.39;107378;1272;137874;-74
2022/03/10 08:30:36;;;;;;;8.20;4.80;;;;;;;22.90;18.45;102006.71;107502;1273;97604;-74
2022/03/10 08:33:08;;;;;;;7.90;4.80;;;;;;;22.60;18.07;102003.96;107435;1272;137536;-75
2022/03/10 08:35:41;;;;;;;10.90;5.40;;;;;;;22.39;18.52;102004.04;107547;1272;112019;-74
2022/03/10 08:38:14;;;;;;;9.30;4.80;;;;;;;22.30;17.62;102006.09;107467;1272;138111;-75
2022/03/10 08:40:47;;;;;;;7.00;4.90;;;;;;;21.90;17.12;102003.55;107494;1272;107499;-75
2022/03/10 08:43:28;;;;;;;8.10;4.60;;;;;;;21.39;17.36;102002.97;107526;1273;96270;-78
2022/03/10 08:46:02;;;;;;;5.40;4.60;;;;;;;20.70;16.44;102005.73;107441;1273;140478;-75
2022/03/10 08:48:40;;;;;;;7.40;4.50;;;;;;;19.76;16.93;102011.66;107339;1272;112475;-74
2022/03/10 08:51:14;;;;;;;7.90;4.90;;;;;;;19.57;18.22;102011.59;107237;1273;139537;-75
2022/03/10 08:53:51;;;;;;;8.10;4.10;;;;;;;19.74;18.45;102008.59;107467;1273;108428;-76
2022/03/10 08:56:26;;;;;;;5.50;4.20;;;;;;;20.05;19.09;102013.95;107482;1273;138881;-75
2022/03/10 08:58:59;;;;;;;5.30;4.40;;;;;;;20.51;18.95;102018.09;107571;1273;96276;-75
2022/03/10 09:01:32;;;;;;;6.10;4.10;;;;;;;20.78;18.30;102017.20;107442;1271;112646;-75
2022/03/10 09:04:05;;;;;;;6.30;3.90;;;;;;;20.97;17.96;102011.15;107312;1273;138314;-76
2022/03/10 09:06:42;;;;;;;6.50;3.90;;;;;;;20.56;16.63;102019.83;107453;1273;106654;-74
2022/03/10 09:09:17;;;;;;;7.10;4.20;;;;;;;20.11;17.33;102018.11;107326;1273;138199;-75
2022/03/10 09:11:50;;;;;;;4.80;3.90;;;;;;;20.00;18.24;102017.02;107593;1273;95998;-74
2022/03/10 09:14:24;;;;;;;7.10;3.90;;;;;;;20.08;17.43;102015.41;107431;1273;137629;-74
2022/03/10 09:16:57;;;;;;;6.40;4.60;;;;;;;20.02;17.62;102016.71;107584;1273;107794;-74
2022/03/10 09:19:33;;;;;;;6.80;3.70;;;;;;;20.29;18.11;102017.30;106470;1273;108866;-74
2022/03/10 09:22:07;;;;;;;7.10;3.60;;;;;;;20.61;18.32;102005.81;105809;1273;137659;-74
2022/03/10 09:24:39;;;;;;;6.10;4.20;;;;;;;20.82;17.81;102004.11;105937;1273;97804;-74
2022/03/10 09:27:11;;;;;;;9.50;3.80;;;;;;;20.48;16.21;102004.63;106765;1272;138956;-76
2022/03/10 09:29:44;;;;;;;4.90;4.20;;;;;;;20.03;17.12;102011.55;107484;1273;108263;-76
2022/03/10 09:32:18;;;;;;;7.20;4.60;;;;;;;20.01;17.67;102006.90;107261;1273;138225;-75
2022/03/10 09:34:52;;;;;;;5.60;4.00;;;;;;;19.98;17.47;102003.86;107490;1273;96604;-74
2022/03/10 09:37:24;;;;;;;8.60;4.20;;;;;;;19.85;17.44;102003.67;107629;1272;96046;-74
2022/03/10 09:39:56;;;;;;;8.20;3.90;;;;;;;19.69;17.27;102003.85;107423;1273;137627;-75
2022/03/10 09:42:32;;;;;;;6.50;4.00;;;;;;;19.38;17.22;102002.83;107478;1273;109320;-76
2022/03/10 09:45:09;;;;;;;7.10;4.10;;;;;;;19.12;16.92;102004.23;107361;1272;137732;-75
2022/03/10 09:47:44;;;;;;;5.60;3.70;;;;;;;18.68;17.20;102007.16;107556;1271;96146;-76
2022/03/10 09:50:18;;;;;;;7.90;4.70;;;;;;;18.61;18.05;102007.77;107438;1273;138400;-76
2022/03/10 09:52:51;;;;;;;6.10;4.60;;;;;;;18.70;17.26;102006.02;107511;1272;111323;-76
2022/03/10 09:55:23;;;;;;;5.30;4.20;;;;;;;18.55;17.46;102009.23;107355;1272;108898;-76
2022/03/10 09:58:04;;;;;;;5.30;4.30;;;;;;;18.23;17.24;102014.27;107219;1273;138068;-76
2022/03/10 10:00:37;;;;;;;5.70;4.20;;;;;;;17.78;17.49;102016.20;107636;1272;96282;-74
2022/03/10 10:03:10;;;;;;;6.70;4.20;;;;;;;17.71;18.18;102024.00;107383;1273;138001;-75
2022/03/10 10:05:43;;;;;;;7.30;4.30;;;;;;;17.69;18.31;102026.36;107553;1273;111155;-75
2022/03/10 10:08:19;;;;;;;5.70;3.90;;;;;;;17.76;18.24;102021.19;107468;1272;139164;-76
2022/03/10 10:10:53;;;;;;;5.90;4.20;;;;;;;17.77;18.28;102031.38;107579;1273;108276;-76
2022/03/10 10:13:31;;;;;;;6.30;3.90;;;;;;;17.73;17.96;102033.77;107527;1273;96328;-74
2022/03/10 10:16:07;;;;;;;6.60;4.10;;;;;;;17.66;17.64;102035.07;107510;1272;138282;-74
2022/03/10 10:18:42;;;;;;;5.20;4.00;;;;;;;17.58;18.48;102036.73;107541;1272;111464;-74
2022/03/10 10:21:24;;;;;;;9.10;4.20;;;;;;;17.77;18.54;102035.42;107346;1273;138177;-74
2022/03/10 10:23:57;;;;;;;6.10;3.70;;;;;;;17.50;16.36;102036.46;107525;1272;107801;-74
2022/03/10 10:26:33;;;;;;;9.00;3.80;;;;;;;16.49;16.33;102039.50;107432;1273;138186;-74
2022/03/10 10:29:06;;;;;;;6.10;3.90;;;;;;;15.65;16.50;102047.16;107570;1271;96027;-75
2022/03/10 10:31:40;;;;;;;7.00;4.00;;;;;;;14.68;16.86;102050.19;107523;1273;112507;-75
2022/03/10 10:34:34;;;;;;;10.40;4.30;;;;;;;14.26;18.28;102046.63;107471;1273;137559;-73
2022/03/10 10:37:07;;;;;;;6.10;3.80;;;;;;;14.13;18.30;102047.55;107530;1273;107724;-74
2022/03/10 10:39:56;;;;;;;6.60;4.00;;;;;;;14.20;19.20;102049.20;107428;1273;138861;-74
2022/03/10 10:42:34;;;;;;;7.60;4.40;;;;;;;14.42;19.18;102050.70;107558;1273;97166;-73
2022/03/10 10:45:28;;;;;;;9.10;4.30;;;;;;;14.47;19.40;102050.61;107359;1273;138421;-73
2022/03/10 10:48:06;;;;;;;5.70;4.10;;;;;;;14.78;19.24;102047.20;107532;1273;110359;-73
2022/03/10 10:50:40;;;;;;;7.40;4.80;;;;;;;14.64;18.47;102046.42;107448;1272;138248;-74
2022/03/10 10:53:32;;;;;;;5.90;4.30;;;;;;;14.12;18.05;102050.55;107524;1273;96263;-73
2022/03/10 10:56:08;;;;;;;7.10;4.30;;;;;;;13.33;18.36;102054.64;107569;1273;96495;-74
2022/03/10 10:58:48;;;;;;;7.40;4.10;;;;;;;12.76;19.15;102056.96;107371;1273;210579;-75
2022/03/10 11:01:36;;;;;;;6.30;4.30;;;;;;;12.53;20.27;102053.21;107391;1273;107840;-72
2022/03/10 11:04:12;;;;;;;6.10;4.30;;;;;;;12.67;20.74;102050.27;107334;1272;139536;-74
2022/03/10 11:06:44;;;;;;;6.40;3.90;;;;;;;12.90;20.56;102049.10;107612;1272;96173;-74
2022/03/10 11:09:17;;;;;;;6.50;4.30;;;;;;;13.01;20.54;102043.89;107546;1271;141130;-73
2022/03/10 11:11:51;;;;;;;7.40;4.40;;;;;;;13.09;20.32;102046.39;107635;1273;112806;-74
2022/03/10 11:14:27;;;;;;;5.80;4.00;;;;;;;12.90;19.22;102049.27;107385;1273;138191;-73
2022/03/10 11:17:01;;;;;;;13.20;7.90;;;;;;;12.46;19.94;102052.09;107642;1273;107185;-74
2022/03/10 11:19:37;;;;;;;8.00;4.20;;;;;;;12.55;20.70;102046.40;107556;1273;96096;-76
2022/03/10 11:22:28;;;;;;;5.80;4.00;;;;;;;12.69;20.52;102046.92;107450;1273;138371;-75
2022/03/10 11:25:31;;;;;;;7.40;4.20;;;;;;;12.60;20.59;102050.02;107628;1273;113702;-76
2022/03/10 11:28:14;;;;;;;5.70;3.90;;;;;;;12.41;20.11;102048.47;107464;1273;138522;-76
2022/03/10 11:30:57;;;;;;;8.10;3.90;;;;;;;12.14;19.99;102052.42;107624;1273;107786;-75
2022/03/10 11:33:34;;;;;;;5.40;3.70;;;;;;;11.85;20.08;102046.94;107520;1272;138345;-74
2022/03/10 11:39:10;;;;;;;5.90;3.70;;;;;;;11.39;19.10;102046.20;103042;1309;636996;-77
2022/03/10 11:41:47;;;;;;;6.50;4.00;;;;;;;10.56;19.50;102046.30;106716;1282;92793;-74
2022/03/10 11:44:24;;;;;;;5.60;4.30;;;;;;;10.18;20.11;102049.85;106757;1283;93674;-75